Allendale, NJ (07401)

4:23 AM EDT on July 31, 2016 (GMT -0400)
urban | | Change Station

Elev 377 ft 41.04 °N, 74.15 °W | Updated 3 minutes ago

Overcast
Overcast
72.3 °F
Feels Like 72.3 °F
N
0.0
Wind Variable Wind from SE

Today
High -- | Low -- °F
--% Chance of Precip.
Yesterday
High -- | Low -- °F
Precip. -- in
Pressure 30.00 in
Visibility 9.0 miles
Clouds Scattered Clouds 4000 ft
Overcast 9500 ft
Dew Point 72 °F
Humidity 99%
Rainfall 0.39 in
Snow Depth Not available.
5:51 AM 8:13 PM
Waning Crescent, 8% visible
METAR KCDW 310753Z AUTO 16003KT 9SM SCT040 OVC095 24/22 A2999 RMK AO2 SLP158 T02390222 TSNO $
Pressure 30.00 in
Visibility 9.0 miles
Clouds Scattered Clouds 4000 ft
Overcast 9500 ft
Dew Point 72 °F
Humidity 99%
Rainfall 0.39 in
Snow Depth Not available.
5:51 AM 8:13 PM
Waning Crescent, 8% visible
METAR KCDW 310753Z AUTO 16003KT 9SM SCT040 OVC095 24/22 A2999 RMK AO2 SLP158 T02390222 TSNO $

10-Day Weather Forecast

Almanac

Astronomy

Jul. 31, 2016 Rise Set
Actual Time
Civil Twilight
Nautical Twilight
Astronomical Twilight
Moon
Length of Visible Light
Length of Day
Tomorrow will be .
, % of the Moon is Illuminated

Today's Extremes

State Highs State Lows

Community

WunderPhotos

Upload Photos

1,928,768 photos uploaded!

WunderBlog® & News

Nearby

Air Quality

  Air Quality AQ Index Pollutant
Not available.

Snow Depth

Station Depth Elevation

Earthquake Activity

City Distance Mag. Time & Date
Minimum magnitude displayed is 2.5.

Coastal Water Temperatures

Place Temperature

Stations

Nearby Weather Stations

Station Location Temp. Windchill Dew Point Humidity Wind Precip. Elev Updated Type
                   

Watches & Warnings

There are currently no watches in effect.